sensor_id;sensor_type;location;lat;lon;timestamp;P1;durP1;ratioP1;P2;durP2;ratioP2
12171;SDS011;6149;52.418;13.668;2023-08-06T00:02:20;10.03;;;9.13;;
12171;SDS011;6149;52.418;13.668;2023-08-06T00:04:49;9.70;;;8.80;;
12171;SDS011;6149;52.418;13.668;2023-08-06T00:07:15;10.40;;;9.37;;
12171;SDS011;6149;52.418;13.668;2023-08-06T00:09:42;9.57;;;8.60;;
12171;SDS011;6149;52.418;13.668;2023-08-06T00:12:10;9.17;;;8.33;;
12171;SDS011;6149;52.418;13.668;2023-08-06T00:14:38;10.50;;;8.60;;
12171;SDS011;6149;52.418;13.668;2023-08-06T00:17:04;8.63;;;7.90;;
12171;SDS011;6149;52.418;13.668;2023-08-06T00:19:35;8.77;;;7.97;;
12171;SDS011;6149;52.418;13.668;2023-08-06T00:22:01;9.07;;;8.13;;
12171;SDS011;6149;52.418;13.668;2023-08-06T00:24:28;8.40;;;7.70;;
12171;SDS011;6149;52.418;13.668;2023-08-06T00:26:56;8.83;;;8.07;;
12171;SDS011;6149;52.418;13.668;2023-08-06T00:29:23;9.97;;;9.03;;
12171;SDS011;6149;52.418;13.668;2023-08-06T00:31:49;8.63;;;7.93;;
12171;SDS011;6149;52.418;13.668;2023-08-06T00:34:19;9.53;;;8.57;;
12171;SDS011;6149;52.418;13.668;2023-08-06T00:36:47;9.37;;;8.43;;
12171;SDS011;6149;52.418;13.668;2023-08-06T00:39:15;9.93;;;9.03;;
12171;SDS011;6149;52.418;13.668;2023-08-06T00:41:42;8.93;;;8.13;;
12171;SDS011;6149;52.418;13.668;2023-08-06T00:44:10;9.30;;;8.50;;
12171;SDS011;6149;52.418;13.668;2023-08-06T00:46:38;8.87;;;8.07;;
12171;SDS011;6149;52.418;13.668;2023-08-06T00:49:05;9.10;;;8.27;;
12171;SDS011;6149;52.418;13.668;2023-08-06T00:51:34;9.60;;;8.60;;
12171;SDS011;6149;52.418;13.668;2023-08-06T00:54:05;9.60;;;8.70;;
12171;SDS011;6149;52.418;13.668;2023-08-06T00:56:31;9.80;;;8.80;;
12171;SDS011;6149;52.418;13.668;2023-08-06T00:59:03;8.97;;;8.17;;
12171;SDS011;6149;52.418;13.668;2023-08-06T01:01:30;8.77;;;8.07;;
12171;SDS011;6149;52.418;13.668;2023-08-06T01:04:00;9.40;;;8.60;;
12171;SDS011;6149;52.418;13.668;2023-08-06T01:06:32;8.90;;;7.93;;
12171;SDS011;6149;52.418;13.668;2023-08-06T01:09:21;8.70;;;7.90;;
12171;SDS011;6149;52.418;13.668;2023-08-06T01:12:02;8.40;;;7.60;;
12171;SDS011;6149;52.418;13.668;2023-08-06T01:14:41;9.30;;;8.30;;
12171;SDS011;6149;52.418;13.668;2023-08-06T01:17:18;8.67;;;7.77;;
12171;SDS011;6149;52.418;13.668;2023-08-06T01:19:46;11.80;;;8.17;;
12171;SDS011;6149;52.418;13.668;2023-08-06T01:22:15;9.03;;;7.90;;
12171;SDS011;6149;52.418;13.668;2023-08-06T01:24:41;8.00;;;7.20;;
12171;SDS011;6149;52.418;13.668;2023-08-06T01:27:17;7.77;;;6.83;;
12171;SDS011;6149;52.418;13.668;2023-08-06T01:29:56;8.13;;;7.33;;
12171;SDS011;6149;52.418;13.668;2023-08-06T01:32:30;10.30;;;7.13;;
12171;SDS011;6149;52.418;13.668;2023-08-06T01:35:01;8.57;;;7.77;;
12171;SDS011;6149;52.418;13.668;2023-08-06T01:37:31;7.27;;;6.70;;
12171;SDS011;6149;52.418;13.668;2023-08-06T01:39:58;7.23;;;6.53;;
12171;SDS011;6149;52.418;13.668;2023-08-06T01:42:26;8.10;;;7.30;;
12171;SDS011;6149;52.418;13.668;2023-08-06T01:44:54;8.37;;;7.67;;
12171;SDS011;6149;52.418;13.668;2023-08-06T01:47:20;8.03;;;7.23;;
12171;SDS011;6149;52.418;13.668;2023-08-06T01:49:47;7.80;;;7.00;;
12171;SDS011;6149;52.418;13.668;2023-08-06T01:52:15;6.97;;;6.37;;
12171;SDS011;6149;52.418;13.668;2023-08-06T01:54:43;7.20;;;6.60;;
12171;SDS011;6149;52.418;13.668;2023-08-06T01:57:11;7.57;;;6.97;;
12171;SDS011;6149;52.418;13.668;2023-08-06T01:59:40;7.07;;;6.40;;
12171;SDS011;6149;52.418;13.668;2023-08-06T02:02:07;8.10;;;7.40;;
12171;SDS011;6149;52.418;13.668;2023-08-06T02:04:34;7.70;;;7.00;;
12171;SDS011;6149;52.418;13.668;2023-08-06T02:07:01;7.43;;;6.83;;
12171;SDS011;6149;52.418;13.668;2023-08-06T02:09:29;7.80;;;7.10;;
12171;SDS011;6149;52.418;13.668;2023-08-06T02:11:58;7.97;;;6.87;;
12171;SDS011;6149;52.418;13.668;2023-08-06T02:14:25;7.90;;;7.20;;
12171;SDS011;6149;52.418;13.668;2023-08-06T02:16:53;7.00;;;6.33;;
12171;SDS011;6149;52.418;13.668;2023-08-06T02:19:22;7.80;;;7.20;;
12171;SDS011;6149;52.418;13.668;2023-08-06T02:21:49;7.00;;;6.40;;
12171;SDS011;6149;52.418;13.668;2023-08-06T02:24:16;8.20;;;7.40;;
12171;SDS011;6149;52.418;13.668;2023-08-06T02:26:42;7.80;;;7.20;;
12171;SDS011;6149;52.418;13.668;2023-08-06T02:29:14;8.03;;;7.40;;
12171;SDS011;6149;52.418;13.668;2023-08-06T02:31:41;7.43;;;6.73;;
12171;SDS011;6149;52.418;13.668;2023-08-06T02:34:07;7.80;;;7.20;;
12171;SDS011;6149;52.418;13.668;2023-08-06T02:36:35;7.33;;;6.73;;
12171;SDS011;6149;52.418;13.668;2023-08-06T02:39:03;9.57;;;7.97;;
12171;SDS011;6149;52.418;13.668;2023-08-06T02:41:30;8.40;;;7.53;;
12171;SDS011;6149;52.418;13.668;2023-08-06T02:43:58;9.13;;;8.23;;
12171;SDS011;6149;52.418;13.668;2023-08-06T02:46:29;8.30;;;7.60;;
12171;SDS011;6149;52.418;13.668;2023-08-06T02:48:57;8.03;;;7.33;;
12171;SDS011;6149;52.418;13.668;2023-08-06T02:51:25;9.13;;;8.30;;
12171;SDS011;6149;52.418;13.668;2023-08-06T02:53:53;8.27;;;7.57;;
12171;SDS011;6149;52.418;13.668;2023-08-06T02:56:21;9.80;;;8.33;;
12171;SDS011;6149;52.418;13.668;2023-08-06T02:58:49;7.80;;;7.20;;
12171;SDS011;6149;52.418;13.668;2023-08-06T03:01:19;8.17;;;7.47;;
12171;SDS011;6149;52.418;13.668;2023-08-06T03:03:49;7.40;;;6.77;;
12171;SDS011;6149;52.418;13.668;2023-08-06T03:09:09;7.97;;;7.10;;
12171;SDS011;6149;52.418;13.668;2023-08-06T03:11:36;8.27;;;7.50;;
12171;SDS011;6149;52.418;13.668;2023-08-06T03:14:04;7.77;;;7.07;;
12171;SDS011;6149;52.418;13.668;2023-08-06T03:16:33;8.57;;;7.87;;
12171;SDS011;6149;52.418;13.668;2023-08-06T03:19:01;9.23;;;8.37;;
12171;SDS011;6149;52.418;13.668;2023-08-06T03:21:28;9.67;;;8.17;;
12171;SDS011;6149;52.418;13.668;2023-08-06T03:23:56;8.93;;;8.13;;
12171;SDS011;6149;52.418;13.668;2023-08-06T03:26:24;8.17;;;7.43;;
12171;SDS011;6149;52.418;13.668;2023-08-06T03:28:52;7.60;;;6.90;;
12171;SDS011;6149;52.418;13.668;2023-08-06T03:31:20;7.50;;;6.80;;
12171;SDS011;6149;52.418;13.668;2023-08-06T03:33:49;7.47;;;6.87;;
12171;SDS011;6149;52.418;13.668;2023-08-06T03:36:21;7.93;;;7.23;;
12171;SDS011;6149;52.418;13.668;2023-08-06T03:38:49;7.87;;;7.10;;
12171;SDS011;6149;52.418;13.668;2023-08-06T03:41:17;7.13;;;6.53;;
12171;SDS011;6149;52.418;13.668;2023-08-06T03:43:44;7.07;;;6.47;;
12171;SDS011;6149;52.418;13.668;2023-08-06T03:46:12;7.23;;;6.63;;
12171;SDS011;6149;52.418;13.668;2023-08-06T03:48:41;6.97;;;6.47;;
12171;SDS011;6149;52.418;13.668;2023-08-06T03:51:07;7.10;;;6.43;;
12171;SDS011;6149;52.418;13.668;2023-08-06T03:53:36;6.97;;;6.20;;
12171;SDS011;6149;52.418;13.668;2023-08-06T03:56:03;6.60;;;6.00;;
12171;SDS011;6149;52.418;13.668;2023-08-06T03:58:30;7.33;;;6.67;;
12171;SDS011;6149;52.418;13.668;2023-08-06T04:00:59;6.10;;;5.60;;
12171;SDS011;6149;52.418;13.668;2023-08-06T04:03:27;7.30;;;6.70;;
12171;SDS011;6149;52.418;13.668;2023-08-06T04:05:54;8.43;;;7.13;;
12171;SDS011;6149;52.418;13.668;2023-08-06T04:08:21;7.37;;;6.77;;
12171;SDS011;6149;52.418;13.668;2023-08-06T04:10:52;7.47;;;6.73;;
12171;SDS011;6149;52.418;13.668;2023-08-06T04:13:21;7.47;;;6.77;;
12171;SDS011;6149;52.418;13.668;2023-08-06T04:15:49;6.83;;;6.23;;
12171;SDS011;6149;52.418;13.668;2023-08-06T04:18:20;7.00;;;6.40;;
12171;SDS011;6149;52.418;13.668;2023-08-06T04:20:48;6.80;;;6.27;;
12171;SDS011;6149;52.418;13.668;2023-08-06T04:23:16;7.30;;;6.70;;
12171;SDS011;6149;52.418;13.668;2023-08-06T04:25:43;7.10;;;6.40;;
12171;SDS011;6149;52.418;13.668;2023-08-06T04:28:12;6.57;;;5.93;;
12171;SDS011;6149;52.418;13.668;2023-08-06T04:30:41;7.33;;;6.63;;
12171;SDS011;6149;52.418;13.668;2023-08-06T04:33:09;5.90;;;5.40;;
12171;SDS011;6149;52.418;13.668;2023-08-06T04:35:37;6.80;;;6.10;;
12171;SDS011;6149;52.418;13.668;2023-08-06T04:38:03;8.87;;;6.27;;
12171;SDS011;6149;52.418;13.668;2023-08-06T04:40:32;8.23;;;7.30;;
12171;SDS011;6149;52.418;13.668;2023-08-06T04:43:01;8.37;;;7.57;;
12171;SDS011;6149;52.418;13.668;2023-08-06T04:45:29;7.40;;;6.70;;
12171;SDS011;6149;52.418;13.668;2023-08-06T04:47:57;8.30;;;7.50;;
12171;SDS011;6149;52.418;13.668;2023-08-06T04:50:25;7.93;;;7.23;;
12171;SDS011;6149;52.418;13.668;2023-08-06T04:52:53;8.30;;;7.60;;
12171;SDS011;6149;52.418;13.668;2023-08-06T04:55:20;8.37;;;7.67;;
12171;SDS011;6149;52.418;13.668;2023-08-06T04:57:48;8.00;;;7.30;;
12171;SDS011;6149;52.418;13.668;2023-08-06T05:00:15;8.33;;;7.50;;
12171;SDS011;6149;52.418;13.668;2023-08-06T05:02:45;7.40;;;6.80;;
12171;SDS011;6149;52.418;13.668;2023-08-06T05:05:13;6.77;;;6.23;;
12171;SDS011;6149;52.418;13.668;2023-08-06T05:07:41;8.13;;;7.40;;
12171;SDS011;6149;52.418;13.668;2023-08-06T05:10:09;7.67;;;6.97;;
12171;SDS011;6149;52.418;13.668;2023-08-06T05:12:39;8.03;;;7.23;;
12171;SDS011;6149;52.418;13.668;2023-08-06T05:15:05;7.50;;;6.90;;
12171;SDS011;6149;52.418;13.668;2023-08-06T05:17:38;7.83;;;7.13;;
12171;SDS011;6149;52.418;13.668;2023-08-06T05:20:06;8.40;;;7.60;;
12171;SDS011;6149;52.418;13.668;2023-08-06T05:22:41;7.43;;;6.83;;
12171;SDS011;6149;52.418;13.668;2023-08-06T05:25:07;7.00;;;6.40;;
12171;SDS011;6149;52.418;13.668;2023-08-06T05:27:38;7.47;;;6.80;;
12171;SDS011;6149;52.418;13.668;2023-08-06T05:30:05;8.13;;;7.33;;
12171;SDS011;6149;52.418;13.668;2023-08-06T05:32:33;8.40;;;7.43;;
12171;SDS011;6149;52.418;13.668;2023-08-06T05:35:01;6.97;;;6.37;;
12171;SDS011;6149;52.418;13.668;2023-08-06T05:37:30;7.23;;;6.63;;
12171;SDS011;6149;52.418;13.668;2023-08-06T05:39:58;7.77;;;6.97;;
12171;SDS011;6149;52.418;13.668;2023-08-06T05:42:25;7.27;;;6.60;;
12171;SDS011;6149;52.418;13.668;2023-08-06T05:44:53;6.70;;;6.10;;
12171;SDS011;6149;52.418;13.668;2023-08-06T05:47:20;7.30;;;6.70;;
12171;SDS011;6149;52.418;13.668;2023-08-06T05:49:46;7.43;;;6.73;;
12171;SDS011;6149;52.418;13.668;2023-08-06T05:52:15;6.93;;;6.33;;
12171;SDS011;6149;52.418;13.668;2023-08-06T05:54:44;7.10;;;6.47;;
12171;SDS011;6149;52.418;13.668;2023-08-06T05:57:12;6.23;;;5.63;;
12171;SDS011;6149;52.418;13.668;2023-08-06T05:59:40;7.17;;;6.57;;
12171;SDS011;6149;52.418;13.668;2023-08-06T06:02:08;6.97;;;6.37;;
12171;SDS011;6149;52.418;13.668;2023-08-06T06:04:38;7.00;;;6.30;;
12171;SDS011;6149;52.418;13.668;2023-08-06T06:07:06;8.60;;;7.47;;
12171;SDS011;6149;52.418;13.668;2023-08-06T06:09:36;6.83;;;6.23;;
12171;SDS011;6149;52.418;13.668;2023-08-06T06:12:06;7.30;;;6.60;;
12171;SDS011;6149;52.418;13.668;2023-08-06T06:14:37;7.30;;;6.47;;
12171;SDS011;6149;52.418;13.668;2023-08-06T06:17:04;7.40;;;6.60;;
12171;SDS011;6149;52.418;13.668;2023-08-06T06:19:30;6.67;;;6.17;;
12171;SDS011;6149;52.418;13.668;2023-08-06T06:21:57;7.20;;;6.60;;
12171;SDS011;6149;52.418;13.668;2023-08-06T06:24:23;8.70;;;7.77;;
12171;SDS011;6149;52.418;13.668;2023-08-06T06:26:51;7.70;;;7.10;;
12171;SDS011;6149;52.418;13.668;2023-08-06T06:29:21;8.33;;;7.47;;
12171;SDS011;6149;52.418;13.668;2023-08-06T06:31:48;7.50;;;6.90;;
12171;SDS011;6149;52.418;13.668;2023-08-06T06:34:16;8.07;;;7.27;;
12171;SDS011;6149;52.418;13.668;2023-08-06T06:36:43;8.17;;;7.53;;
12171;SDS011;6149;52.418;13.668;2023-08-06T06:39:11;7.90;;;7.20;;
12171;SDS011;6149;52.418;13.668;2023-08-06T06:41:39;8.23;;;7.43;;
12171;SDS011;6149;52.418;13.668;2023-08-06T06:44:05;6.60;;;6.00;;
12171;SDS011;6149;52.418;13.668;2023-08-06T06:46:35;6.97;;;6.30;;
12171;SDS011;6149;52.418;13.668;2023-08-06T06:49:03;6.67;;;6.07;;
12171;SDS011;6149;52.418;13.668;2023-08-06T06:51:30;7.00;;;6.30;;
12171;SDS011;6149;52.418;13.668;2023-08-06T06:53:59;6.43;;;5.93;;
12171;SDS011;6149;52.418;13.668;2023-08-06T06:56:25;6.60;;;6.00;;
12171;SDS011;6149;52.418;13.668;2023-08-06T06:58:52;7.80;;;6.47;;
12171;SDS011;6149;52.418;13.668;2023-08-06T07:01:20;6.90;;;6.20;;
12171;SDS011;6149;52.418;13.668;2023-08-06T07:03:50;6.63;;;6.13;;
12171;SDS011;6149;52.418;13.668;2023-08-06T07:06:17;6.70;;;6.10;;
12171;SDS011;6149;52.418;13.668;2023-08-06T07:08:45;8.63;;;7.73;;
12171;SDS011;6149;52.418;13.668;2023-08-06T07:11:15;7.27;;;6.60;;
12171;SDS011;6149;52.418;13.668;2023-08-06T07:13:43;8.63;;;7.60;;
12171;SDS011;6149;52.418;13.668;2023-08-06T07:16:11;7.90;;;7.20;;
12171;SDS011;6149;52.418;13.668;2023-08-06T07:18:37;9.63;;;8.67;;
12171;SDS011;6149;52.418;13.668;2023-08-06T07:21:10;7.97;;;7.10;;
12171;SDS011;6149;52.418;13.668;2023-08-06T07:23:39;9.30;;;8.50;;
12171;SDS011;6149;52.418;13.668;2023-08-06T07:26:05;9.23;;;8.33;;
12171;SDS011;6149;52.418;13.668;2023-08-06T07:28:32;9.57;;;8.60;;
12171;SDS011;6149;52.418;13.668;2023-08-06T07:30:59;8.53;;;7.83;;
12171;SDS011;6149;52.418;13.668;2023-08-06T07:33:26;9.23;;;8.20;;
12171;SDS011;6149;52.418;13.668;2023-08-06T07:35:54;9.53;;;8.73;;
12171;SDS011;6149;52.418;13.668;2023-08-06T07:38:25;10.67;;;9.10;;
12171;SDS011;6149;52.418;13.668;2023-08-06T07:40:54;10.17;;;9.37;;
12171;SDS011;6149;52.418;13.668;2023-08-06T07:43:21;9.10;;;8.40;;
12171;SDS011;6149;52.418;13.668;2023-08-06T07:45:47;8.97;;;8.17;;
12171;SDS011;6149;52.418;13.668;2023-08-06T07:48:14;9.57;;;8.67;;
12171;SDS011;6149;52.418;13.668;2023-08-06T07:50:41;10.33;;;9.43;;
12171;SDS011;6149;52.418;13.668;2023-08-06T07:53:17;9.27;;;8.40;;
12171;SDS011;6149;52.418;13.668;2023-08-06T07:55:48;10.53;;;9.53;;
12171;SDS011;6149;52.418;13.668;2023-08-06T07:58:20;9.07;;;8.27;;
12171;SDS011;6149;52.418;13.668;2023-08-06T08:00:49;10.33;;;9.33;;
12171;SDS011;6149;52.418;13.668;2023-08-06T08:03:18;12.03;;;9.23;;
12171;SDS011;6149;52.418;13.668;2023-08-06T08:05:46;10.83;;;9.93;;
12171;SDS011;6149;52.418;13.668;2023-08-06T08:08:13;9.80;;;8.90;;
12171;SDS011;6149;52.418;13.668;2023-08-06T08:10:41;9.87;;;9.07;;
12171;SDS011;6149;52.418;13.668;2023-08-06T08:13:12;10.80;;;9.73;;
12171;SDS011;6149;52.418;13.668;2023-08-06T08:15:39;10.67;;;9.63;;
12171;SDS011;6149;52.418;13.668;2023-08-06T08:18:07;11.37;;;10.30;;
12171;SDS011;6149;52.418;13.668;2023-08-06T08:20:34;11.47;;;10.33;;
12171;SDS011;6149;52.418;13.668;2023-08-06T08:23:00;11.40;;;10.50;;
12171;SDS011;6149;52.418;13.668;2023-08-06T08:25:27;11.73;;;10.83;;
12171;SDS011;6149;52.418;13.668;2023-08-06T08:27:58;10.30;;;9.40;;
12171;SDS011;6149;52.418;13.668;2023-08-06T08:30:27;11.23;;;10.23;;
12171;SDS011;6149;52.418;13.668;2023-08-06T08:32:55;10.47;;;9.57;;
12171;SDS011;6149;52.418;13.668;2023-08-06T08:35:21;11.77;;;10.57;;
12171;SDS011;6149;52.418;13.668;2023-08-06T08:37:49;12.23;;;11.00;;
12171;SDS011;6149;52.418;13.668;2023-08-06T08:40:20;11.33;;;10.33;;
12171;SDS011;6149;52.418;13.668;2023-08-06T08:42:52;11.37;;;10.30;;
12171;SDS011;6149;52.418;13.668;2023-08-06T08:45:20;12.50;;;11.40;;
12171;SDS011;6149;52.418;13.668;2023-08-06T08:47:54;11.60;;;10.70;;
12171;SDS011;6149;52.418;13.668;2023-08-06T08:50:22;12.00;;;11.00;;
12171;SDS011;6149;52.418;13.668;2023-08-06T08:52:50;13.20;;;12.00;;
12171;SDS011;6149;52.418;13.668;2023-08-06T08:55:21;13.20;;;11.90;;
12171;SDS011;6149;52.418;13.668;2023-08-06T08:57:50;12.53;;;11.43;;
12171;SDS011;6149;52.418;13.668;2023-08-06T09:00:25;13.10;;;12.00;;
12171;SDS011;6149;52.418;13.668;2023-08-06T09:02:51;13.77;;;12.40;;
12171;SDS011;6149;52.418;13.668;2023-08-06T09:05:24;12.33;;;11.33;;
12171;SDS011;6149;52.418;13.668;2023-08-06T09:07:58;12.43;;;11.33;;
12171;SDS011;6149;52.418;13.668;2023-08-06T09:10:31;12.70;;;11.40;;
12171;SDS011;6149;52.418;13.668;2023-08-06T09:12:59;12.20;;;11.10;;
12171;SDS011;6149;52.418;13.668;2023-08-06T09:15:28;14.00;;;12.73;;
12171;SDS011;6149;52.418;13.668;2023-08-06T09:17:57;14.13;;;12.83;;
12171;SDS011;6149;52.418;13.668;2023-08-06T09:20:26;12.23;;;11.13;;
12171;SDS011;6149;52.418;13.668;2023-08-06T09:22:53;14.10;;;12.73;;
12171;SDS011;6149;52.418;13.668;2023-08-06T09:25:24;11.63;;;10.63;;
12171;SDS011;6149;52.418;13.668;2023-08-06T09:27:54;12.90;;;11.77;;
12171;SDS011;6149;52.418;13.668;2023-08-06T09:30:28;12.73;;;11.63;;
12171;SDS011;6149;52.418;13.668;2023-08-06T09:32:59;13.00;;;11.80;;
12171;SDS011;6149;52.418;13.668;2023-08-06T09:35:28;13.43;;;12.30;;
12171;SDS011;6149;52.418;13.668;2023-08-06T09:38:03;14.37;;;13.07;;
12171;SDS011;6149;52.418;13.668;2023-08-06T09:40:33;15.00;;;13.60;;
12171;SDS011;6149;52.418;13.668;2023-08-06T09:43:01;14.83;;;13.10;;
12171;SDS011;6149;52.418;13.668;2023-08-06T09:45:30;14.77;;;13.27;;
12171;SDS011;6149;52.418;13.668;2023-08-06T09:48:04;14.13;;;12.83;;
12171;SDS011;6149;52.418;13.668;2023-08-06T09:50:33;13.80;;;12.60;;
12171;SDS011;6149;52.418;13.668;2023-08-06T09:53:02;13.87;;;12.57;;
12171;SDS011;6149;52.418;13.668;2023-08-06T09:55:30;14.40;;;13.20;;
12171;SDS011;6149;52.418;13.668;2023-08-06T09:58:00;14.53;;;13.17;;
12171;SDS011;6149;52.418;13.668;2023-08-06T10:00:27;14.43;;;13.20;;
12171;SDS011;6149;52.418;13.668;2023-08-06T10:03:00;15.17;;;13.70;;
12171;SDS011;6149;52.418;13.668;2023-08-06T10:05:29;14.60;;;13.27;;
12171;SDS011;6149;52.418;13.668;2023-08-06T10:07:58;14.73;;;13.43;;
12171;SDS011;6149;52.418;13.668;2023-08-06T10:10:25;15.93;;;14.33;;
12171;SDS011;6149;52.418;13.668;2023-08-06T10:12:55;13.10;;;12.00;;
12171;SDS011;6149;52.418;13.668;2023-08-06T10:15:27;10.87;;;9.97;;
12171;SDS011;6149;52.418;13.668;2023-08-06T10:17:59;11.20;;;10.23;;
12171;SDS011;6149;52.418;13.668;2023-08-06T10:20:33;10.33;;;9.43;;
12171;SDS011;6149;52.418;13.668;2023-08-06T10:23:01;9.90;;;9.10;;
12171;SDS011;6149;52.418;13.668;2023-08-06T10:25:30;10.40;;;9.60;;
12171;SDS011;6149;52.418;13.668;2023-08-06T10:27:59;8.87;;;8.13;;
12171;SDS011;6149;52.418;13.668;2023-08-06T10:30:29;9.33;;;8.50;;
12171;SDS011;6149;52.418;13.668;2023-08-06T10:32:58;9.70;;;8.90;;
12171;SDS011;6149;52.418;13.668;2023-08-06T10:35:30;9.17;;;8.37;;
12171;SDS011;6149;52.418;13.668;2023-08-06T10:38:05;8.53;;;6.20;;
12171;SDS011;6149;52.418;13.668;2023-08-06T10:40:39;7.77;;;6.97;;
12171;SDS011;6149;52.418;13.668;2023-08-06T10:43:24;7.07;;;6.10;;
12171;SDS011;6149;52.418;13.668;2023-08-06T10:45:53;5.50;;;5.10;;
12171;SDS011;6149;52.418;13.668;2023-08-06T10:48:31;5.87;;;5.47;;
12171;SDS011;6149;52.418;13.668;2023-08-06T10:51:02;6.07;;;5.57;;
12171;SDS011;6149;52.418;13.668;2023-08-06T10:53:35;5.70;;;4.70;;
12171;SDS011;6149;52.418;13.668;2023-08-06T10:56:02;5.20;;;4.80;;
12171;SDS011;6149;52.418;13.668;2023-08-06T10:58:40;6.83;;;5.33;;
12171;SDS011;6149;52.418;13.668;2023-08-06T11:01:07;5.83;;;5.27;;
12171;SDS011;6149;52.418;13.668;2023-08-06T11:03:36;5.43;;;5.03;;
12171;SDS011;6149;52.418;13.668;2023-08-06T11:06:04;5.83;;;5.33;;
12171;SDS011;6149;52.418;13.668;2023-08-06T11:08:35;5.23;;;4.73;;
12171;SDS011;6149;52.418;13.668;2023-08-06T11:11:10;6.10;;;5.70;;
12171;SDS011;6149;52.418;13.668;2023-08-06T11:13:38;7.43;;;6.30;;
12171;SDS011;6149;52.418;13.668;2023-08-06T11:16:07;5.90;;;5.40;;
12171;SDS011;6149;52.418;13.668;2023-08-06T11:18:37;6.67;;;5.97;;
12171;SDS011;6149;52.418;13.668;2023-08-06T11:21:07;6.87;;;6.27;;
12171;SDS011;6149;52.418;13.668;2023-08-06T11:23:36;7.10;;;6.50;;
12171;SDS011;6149;52.418;13.668;2023-08-06T11:26:03;7.40;;;6.77;;
12171;SDS011;6149;52.418;13.668;2023-08-06T11:28:30;8.03;;;7.23;;
12171;SDS011;6149;52.418;13.668;2023-08-06T11:30:57;7.07;;;6.47;;
12171;SDS011;6149;52.418;13.668;2023-08-06T11:33:28;7.00;;;6.50;;
12171;SDS011;6149;52.418;13.668;2023-08-06T11:35:57;8.40;;;7.53;;
12171;SDS011;6149;52.418;13.668;2023-08-06T11:38:32;8.23;;;7.53;;
12171;SDS011;6149;52.418;13.668;2023-08-06T11:41:00;7.43;;;6.83;;
12171;SDS011;6149;52.418;13.668;2023-08-06T11:43:26;7.70;;;7.00;;
12171;SDS011;6149;52.418;13.668;2023-08-06T11:45:58;7.53;;;6.90;;
12171;SDS011;6149;52.418;13.668;2023-08-06T11:48:26;7.40;;;6.70;;
12171;SDS011;6149;52.418;13.668;2023-08-06T11:50:54;7.03;;;6.37;;
12171;SDS011;6149;52.418;13.668;2023-08-06T11:53:26;7.00;;;6.40;;
12171;SDS011;6149;52.418;13.668;2023-08-06T11:55:56;7.40;;;6.80;;
12171;SDS011;6149;52.418;13.668;2023-08-06T11:58:23;7.50;;;6.80;;
12171;SDS011;6149;52.418;13.668;2023-08-06T12:00:52;7.70;;;7.00;;
12171;SDS011;6149;52.418;13.668;2023-08-06T12:03:21;7.70;;;7.00;;
12171;SDS011;6149;52.418;13.668;2023-08-06T12:05:53;8.53;;;7.17;;
12171;SDS011;6149;52.418;13.668;2023-08-06T12:08:20;7.43;;;6.73;;
12171;SDS011;6149;52.418;13.668;2023-08-06T12:10:49;7.63;;;7.03;;
12171;SDS011;6149;52.418;13.668;2023-08-06T12:13:16;7.50;;;6.80;;
12171;SDS011;6149;52.418;13.668;2023-08-06T12:15:44;7.17;;;6.57;;
12171;SDS011;6149;52.418;13.668;2023-08-06T12:18:12;7.00;;;6.40;;
12171;SDS011;6149;52.418;13.668;2023-08-06T12:20:40;6.73;;;6.23;;
12171;SDS011;6149;52.418;13.668;2023-08-06T12:23:07;7.30;;;6.70;;
12171;SDS011;6149;52.418;13.668;2023-08-06T12:25:35;8.10;;;7.30;;
12171;SDS011;6149;52.418;13.668;2023-08-06T12:28:03;7.47;;;6.77;;
12171;SDS011;6149;52.418;13.668;2023-08-06T12:30:31;7.37;;;6.67;;
12171;SDS011;6149;52.418;13.668;2023-08-06T12:32:58;6.97;;;6.37;;
12171;SDS011;6149;52.418;13.668;2023-08-06T12:35:25;6.73;;;6.23;;
12171;SDS011;6149;52.418;13.668;2023-08-06T12:37:52;7.73;;;6.60;;
12171;SDS011;6149;52.418;13.668;2023-08-06T12:40:20;7.73;;;7.03;;
12171;SDS011;6149;52.418;13.668;2023-08-06T12:42:47;8.13;;;7.43;;
12171;SDS011;6149;52.418;13.668;2023-08-06T12:45:16;8.27;;;7.57;;
12171;SDS011;6149;52.418;13.668;2023-08-06T12:47:47;7.17;;;6.47;;
12171;SDS011;6149;52.418;13.668;2023-08-06T12:50:15;8.07;;;7.27;;
12171;SDS011;6149;52.418;13.668;2023-08-06T12:52:46;7.70;;;7.10;;
12171;SDS011;6149;52.418;13.668;2023-08-06T12:55:17;7.97;;;7.27;;
12171;SDS011;6149;52.418;13.668;2023-08-06T12:57:45;8.87;;;8.00;;
12171;SDS011;6149;52.418;13.668;2023-08-06T13:00:13;8.77;;;7.97;;
12171;SDS011;6149;52.418;13.668;2023-08-06T13:02:42;7.97;;;7.27;;
12171;SDS011;6149;52.418;13.668;2023-08-06T13:05:12;8.80;;;8.00;;
12171;SDS011;6149;52.418;13.668;2023-08-06T13:07:49;9.13;;;8.33;;
12171;SDS011;6149;52.418;13.668;2023-08-06T13:10:17;8.90;;;8.10;;
12171;SDS011;6149;52.418;13.668;2023-08-06T13:12:46;9.37;;;8.60;;
12171;SDS011;6149;52.418;13.668;2023-08-06T13:15:16;8.37;;;7.60;;
12171;SDS011;6149;52.418;13.668;2023-08-06T13:17:49;9.93;;;9.07;;
12171;SDS011;6149;52.418;13.668;2023-08-06T13:20:18;8.77;;;7.97;;
12171;SDS011;6149;52.418;13.668;2023-08-06T13:22:46;9.60;;;8.80;;
12171;SDS011;6149;52.418;13.668;2023-08-06T13:25:19;9.17;;;8.47;;
12171;SDS011;6149;52.418;13.668;2023-08-06T13:27:47;9.67;;;8.77;;
12171;SDS011;6149;52.418;13.668;2023-08-06T13:30:15;9.27;;;8.43;;
12171;SDS011;6149;52.418;13.668;2023-08-06T13:32:43;10.97;;;9.10;;
12171;SDS011;6149;52.418;13.668;2023-08-06T13:35:16;9.67;;;8.77;;
12171;SDS011;6149;52.418;13.668;2023-08-06T13:37:46;10.87;;;9.77;;
12171;SDS011;6149;52.418;13.668;2023-08-06T13:40:16;11.07;;;9.97;;
12171;SDS011;6149;52.418;13.668;2023-08-06T13:42:46;10.43;;;9.53;;
12171;SDS011;6149;52.418;13.668;2023-08-06T13:45:14;10.03;;;9.23;;
12171;SDS011;6149;52.418;13.668;2023-08-06T13:47:41;10.43;;;9.33;;
12171;SDS011;6149;52.418;13.668;2023-08-06T13:50:08;10.10;;;9.17;;
12171;SDS011;6149;52.418;13.668;2023-08-06T13:52:42;11.43;;;10.43;;
12171;SDS011;6149;52.418;13.668;2023-08-06T13:55:08;11.73;;;10.60;;
12171;SDS011;6149;52.418;13.668;2023-08-06T13:57:37;12.03;;;10.90;;
12171;SDS011;6149;52.418;13.668;2023-08-06T14:00:04;10.80;;;9.70;;
12171;SDS011;6149;52.418;13.668;2023-08-06T14:02:32;11.77;;;10.67;;
12171;SDS011;6149;52.418;13.668;2023-08-06T14:05:00;11.93;;;10.90;;
12171;SDS011;6149;52.418;13.668;2023-08-06T14:07:28;11.90;;;10.90;;
12171;SDS011;6149;52.418;13.668;2023-08-06T14:09:57;11.73;;;10.53;;
12171;SDS011;6149;52.418;13.668;2023-08-06T14:12:25;8.87;;;8.07;;
12171;SDS011;6149;52.418;13.668;2023-08-06T14:14:52;9.60;;;8.60;;
12171;SDS011;6149;52.418;13.668;2023-08-06T14:17:21;9.87;;;8.87;;
12171;SDS011;6149;52.418;13.668;2023-08-06T14:19:49;9.97;;;8.50;;
12171;SDS011;6149;52.418;13.668;2023-08-06T14:22:16;8.83;;;8.00;;
12171;SDS011;6149;52.418;13.668;2023-08-06T14:24:42;10.07;;;9.07;;
12171;SDS011;6149;52.418;13.668;2023-08-06T14:27:15;9.70;;;8.80;;
12171;SDS011;6149;52.418;13.668;2023-08-06T14:29:41;8.73;;;8.03;;
12171;SDS011;6149;52.418;13.668;2023-08-06T14:32:08;8.67;;;7.97;;
12171;SDS011;6149;52.418;13.668;2023-08-06T14:34:37;9.50;;;8.13;;
12171;SDS011;6149;52.418;13.668;2023-08-06T14:37:04;8.07;;;7.33;;
12171;SDS011;6149;52.418;13.668;2023-08-06T14:39:32;9.43;;;8.47;;
12171;SDS011;6149;52.418;13.668;2023-08-06T14:42:00;9.87;;;8.87;;
12171;SDS011;6149;52.418;13.668;2023-08-06T14:44:28;10.13;;;9.13;;
12171;SDS011;6149;52.418;13.668;2023-08-06T14:46:56;9.27;;;8.47;;
12171;SDS011;6149;52.418;13.668;2023-08-06T14:49:22;9.93;;;9.03;;
12171;SDS011;6149;52.418;13.668;2023-08-06T14:51:53;8.80;;;8.00;;
12171;SDS011;6149;52.418;13.668;2023-08-06T14:54:24;9.73;;;8.73;;
12171;SDS011;6149;52.418;13.668;2023-08-06T14:56:52;7.70;;;7.00;;